Time;durP1;ratioP1;P1;durP2;ratioP2;P2;SDS_P1;SDS_P2;PMS_P1;PMS_P2;Temp;Humidity;BMP_temperature;BMP_pressure;BME280_temperature;BME280_humidity;BME280_pressure;Samples;Min_cycle;Max_cycle;Signal;HPM_P1;HPM_P2
2021/04/14 00:02:14;;;;;;;7.20;4.30;;;;;;;5.25;60.21;100774.92;147820;1147;104582;-74
2021/04/14 00:05:21;;;;;;;8.88;3.80;;;;;;;5.26;59.98;100781.05;147650;1146;104713;-69
2021/04/14 00:08:27;;;;;;;6.28;3.47;;;;;;;5.25;59.29;100781.98;147674;1147;104889;-72
2021/04/14 00:11:30;;;;;;;4.65;2.70;;;;;;;5.16;59.49;100779.97;147410;1148;104453;-72
2021/04/14 00:14:34;;;;;;;6.60;3.20;;;;;;;5.03;59.71;100775.53;147750;1148;104550;-70
2021/04/14 00:17:37;;;;;;;5.28;2.87;;;;;;;4.93;61.00;100790.34;147689;1147;104535;-72
2021/04/14 00:20:40;;;;;;;34.78;17.75;;;;;;;4.91;60.25;100786.95;147472;1147;104756;-71
2021/04/14 00:23:43;;;;;;;13.45;7.50;;;;;;;4.90;60.37;100793.17;147407;1147;104477;-73
2021/04/14 00:26:47;;;;;;;38.10;21.90;;;;;;;4.89;60.27;100784.41;147373;1147;104442;-72
2021/04/14 00:29:50;;;;;;;13.38;7.05;;;;;;;4.93;60.54;100787.70;147633;1147;104543;-71
2021/04/14 00:32:53;;;;;;;9.83;4.92;;;;;;;4.90;60.12;100785.24;147634;1147;104447;-74
2021/04/14 00:35:57;;;;;;;6.50;4.27;;;;;;;4.89;60.62;100784.41;147792;1147;104652;-72
2021/04/14 00:39:00;;;;;;;6.30;3.70;;;;;;;4.84;60.23;100781.22;147791;1147;104528;-71
2021/04/14 00:42:05;;;;;;;14.40;8.35;;;;;;;4.83;60.31;100776.02;147757;1147;104556;-71
2021/04/14 00:45:10;;;;;;;6.20;3.58;;;;;;;4.85;60.03;100776.77;147788;1146;104457;-71
2021/04/14 00:48:14;;;;;;;11.73;8.00;;;;;;;4.80;60.41;100776.25;147763;1147;104469;-73
2021/04/14 00:51:19;;;;;;;6.13;2.60;;;;;;;4.74;61.03;100784.59;147261;1146;104611;-70
2021/04/14 00:54:23;;;;;;;5.10;2.20;;;;;;;4.63;61.28;100780.02;147678;1146;104606;-70
2021/04/14 00:57:26;;;;;;;4.40;2.77;;;;;;;4.58;61.38;100774.17;147707;1147;104473;-70
2021/04/14 01:00:33;;;;;;;6.95;2.30;;;;;;;4.47;62.03;100778.38;147616;1147;104462;-71
2021/04/14 01:03:38;;;;;;;5.47;2.27;;;;;;;4.39;62.46;100785.10;147524;1148;104547;-70
2021/04/14 01:06:44;;;;;;;6.77;3.40;;;;;;;4.42;61.37;100769.06;147751;1147;104597;-72
2021/04/14 01:09:47;;;;;;;7.20;2.77;;;;;;;4.45;61.70;100777.64;147770;1147;104652;-71
2021/04/14 01:12:50;;;;;;;5.10;2.60;;;;;;;4.44;62.50;100783.02;147720;1147;104511;-71
2021/04/14 01:15:53;;;;;;;4.80;2.85;;;;;;;4.36;62.12;100778.23;147489;1146;104547;-72
2021/04/14 01:18:56;;;;;;;6.35;2.35;;;;;;;4.36;62.08;100785.33;147590;1147;104543;-72
2021/04/14 01:22:00;;;;;;;4.80;2.47;;;;;;;4.29;62.17;100790.14;147779;1147;104640;-72
2021/04/14 01:25:04;;;;;;;6.63;3.60;;;;;;;4.25;61.77;100784.23;147755;1147;104541;-72
2021/04/14 01:28:10;;;;;;;6.78;2.50;;;;;;;4.27;61.84;100784.11;147574;1147;104470;-72
2021/04/14 01:31:15;;;;;;;3.87;2.22;;;;;;;4.25;62.33;100794.80;147492;1147;104522;-72
2021/04/14 01:34:20;;;;;;;5.27;2.17;;;;;;;4.23;62.10;100791.38;147783;1146;104459;-72
2021/04/14 01:37:24;;;;;;;6.20;2.20;;;;;;;4.15;62.80;100788.39;147845;1147;104695;-72
2021/04/14 01:40:27;;;;;;;4.53;2.10;;;;;;;4.07;64.80;100785.41;147573;1147;104542;-75
2021/04/14 01:43:30;;;;;;;5.87;2.62;;;;;;;3.96;65.49;100782.60;147767;1147;105644;-72
2021/04/14 01:46:34;;;;;;;4.57;2.50;;;;;;;3.86;64.43;100782.34;147764;1147;104953;-73
2021/04/14 01:49:37;;;;;;;5.30;2.50;;;;;;;3.90;63.77;100781.20;147677;1147;104546;-75
2021/04/14 01:52:40;;;;;;;6.93;2.40;;;;;;;4.03;63.97;100782.11;147789;1147;104665;-72
2021/04/14 01:55:44;;;;;;;5.95;2.17;;;;;;;4.03;64.49;100781.27;147813;1147;104543;-72
2021/04/14 01:58:48;;;;;;;5.15;2.40;;;;;;;4.02;64.67;100776.92;147770;1146;104482;-74
2021/04/14 02:01:51;;;;;;;8.50;2.85;;;;;;;4.09;63.20;100773.79;147732;1147;104542;-77
2021/04/14 02:04:54;;;;;;;5.27;2.40;;;;;;;4.15;63.69;100772.55;147794;1147;104469;-74
2021/04/14 02:07:58;;;;;;;6.20;2.47;;;;;;;4.20;63.30;100775.75;147776;1146;104615;-72
2021/04/14 02:11:02;;;;;;;5.60;2.80;;;;;;;4.18;63.41;100776.81;147720;1148;104459;-75
2021/04/14 02:14:09;;;;;;;6.92;2.98;;;;;;;4.16;63.74;100768.11;147763;1146;104946;-78
2021/04/14 02:17:12;;;;;;;7.80;2.77;;;;;;;4.10;63.18;100770.22;147809;1147;104542;-73
2021/04/14 02:20:17;;;;;;;8.10;3.45;;;;;;;4.11;65.09;100771.05;147725;1145;104473;-71
2021/04/14 02:23:23;;;;;;;7.72;3.72;;;;;;;4.13;64.16;100766.52;148052;1146;104548;-71
2021/04/14 02:26:27;;;;;;;6.37;3.33;;;;;;;4.15;64.38;100771.71;147854;1147;104492;-73
2021/04/14 02:29:30;;;;;;;6.70;2.90;;;;;;;4.11;64.44;100768.41;147686;1146;104658;-74
2021/04/14 02:32:34;;;;;;;7.05;2.40;;;;;;;4.04;64.08;100769.75;147712;1147;104930;-75
2021/04/14 02:35:39;;;;;;;5.58;1.98;;;;;;;4.01;65.00;100764.68;147804;1146;104461;-73
2021/04/14 02:38:42;;;;;;;3.62;1.85;;;;;;;3.88;66.51;100762.80;147766;1146;104678;-73
2021/04/14 02:41:46;;;;;;;4.42;2.05;;;;;;;3.92;65.38;100755.55;147916;1147;104952;-76
2021/04/14 02:44:50;;;;;;;6.97;2.45;;;;;;;3.89;65.79;100761.88;147797;1148;104849;-75
2021/04/14 02:47:53;;;;;;;7.37;2.75;;;;;;;3.88;65.54;100754.05;147807;1147;104458;-77
2021/04/14 02:50:56;;;;;;;7.63;2.40;;;;;;;3.85;65.38;100755.09;147477;1147;104467;-77
2021/04/14 02:53:59;;;;;;;5.75;2.42;;;;;;;3.76;64.69;100747.76;147633;1147;104539;-76
2021/04/14 02:57:02;;;;;;;6.92;2.83;;;;;;;3.73;65.33;100747.94;147464;1146;104531;-77
2021/04/14 03:00:10;;;;;;;6.42;2.70;;;;;;;3.66;65.45;100746.66;147723;1146;104543;-76
2021/04/14 03:03:13;;;;;;;7.50;2.60;;;;;;;3.71;65.69;100741.91;147788;1147;104470;-76
2021/04/14 03:06:16;;;;;;;6.72;2.72;;;;;;;3.79;65.67;100747.58;147785;1146;104476;-76
2021/04/14 03:09:20;;;;;;;6.10;2.87;;;;;;;3.80;65.58;100738.70;147767;1147;104470;-76
2021/04/14 03:12:23;;;;;;;5.90;2.37;;;;;;;3.84;66.17;100736.71;147927;1147;104462;-73
2021/04/14 03:15:29;;;;;;;6.05;2.50;;;;;;;3.86;65.66;100740.94;147782;1146;104552;-73
2021/04/14 03:18:32;;;;;;;5.35;2.55;;;;;;;3.87;65.43;100736.53;147751;1147;104553;-73
2021/04/14 03:21:36;;;;;;;6.72;2.60;;;;;;;3.87;65.08;100740.01;147305;1146;104855;-71
2021/04/14 03:24:39;;;;;;;7.08;2.72;;;;;;;3.82;65.05;100733.33;147518;1147;104706;-72
2021/04/14 03:27:42;;;;;;;6.03;2.92;;;;;;;3.77;65.37;100735.41;147628;1145;104503;-72
2021/04/14 03:30:46;;;;;;;7.28;3.20;;;;;;;3.68;66.11;100734.20;147484;1147;104447;-71
2021/04/14 03:33:49;;;;;;;10.48;3.02;;;;;;;3.56;67.28;100737.59;147602;1147;104525;-72
2021/04/14 03:36:53;;;;;;;5.78;3.30;;;;;;;3.47;65.83;100731.96;147370;1147;104953;-71
2021/04/14 03:39:56;;;;;;;8.30;3.75;;;;;;;3.38;67.68;100743.08;147802;1147;104448;-71
2021/04/14 03:42:59;;;;;;;8.90;3.87;;;;;;;3.38;67.14;100736.97;147786;1146;104470;-71
2021/04/14 03:46:02;;;;;;;6.47;3.47;;;;;;;3.42;67.08;100734.03;147784;1148;104575;-73
2021/04/14 03:49:06;;;;;;;9.18;4.25;;;;;;;3.38;67.66;100737.80;147713;1148;104470;-73
2021/04/14 03:52:09;;;;;;;8.63;4.58;;;;;;;3.34;67.60;100733.66;147760;1146;104543;-71
2021/04/14 03:55:15;;;;;;;7.30;4.60;;;;;;;3.31;68.54;100739.98;147777;1146;105018;-72
2021/04/14 03:58:18;;;;;;;11.00;5.45;;;;;;;3.25;68.16;100740.38;147828;1147;104479;-72
2021/04/14 04:01:23;;;;;;;9.68;5.33;;;;;;;3.31;67.71;100744.39;147718;1146;104470;-72
2021/04/14 04:04:26;;;;;;;8.68;5.15;;;;;;;3.32;67.45;100735.55;147754;1148;104500;-73
2021/04/14 04:07:30;;;;;;;14.03;7.37;;;;;;;3.38;68.25;100744.88;147769;1148;104528;-71
2021/04/14 04:10:33;;;;;;;15.25;7.28;;;;;;;3.43;66.36;100743.66;147777;1146;104608;-72
2021/04/14 04:13:37;;;;;;;11.65;5.83;;;;;;;3.56;67.40;100754.30;147791;1146;104559;-75
2021/04/14 04:16:40;;;;;;;10.65;5.75;;;;;;;3.62;69.03;100748.64;147802;1146;104441;-71
2021/04/14 04:19:44;;;;;;;11.07;4.77;;;;;;;3.60;67.96;100752.30;147779;1147;104592;-72
2021/04/14 04:22:47;;;;;;;11.73;5.20;;;;;;;3.59;68.98;100759.37;147576;1146;104537;-71
2021/04/14 04:25:51;;;;;;;9.83;4.65;;;;;;;3.57;68.56;100755.14;147657;1147;104920;-72
2021/04/14 04:28:54;;;;;;;12.13;5.30;;;;;;;3.57;67.48;100744.59;147788;1147;104591;-71
2021/04/14 04:31:57;;;;;;;15.13;6.70;;;;;;;3.54;67.22;100761.44;147642;1147;104455;-73
2021/04/14 04:35:01;;;;;;;12.73;6.50;;;;;;;3.49;67.49;100760.89;147802;1147;104543;-72
2021/04/14 04:38:04;;;;;;;11.00;5.80;;;;;;;3.41;67.07;100756.09;147792;1147;104543;-71
2021/04/14 04:41:08;;;;;;;12.80;4.72;;;;;;;3.39;67.54;100760.62;147693;1146;104618;-72
2021/04/14 04:44:11;;;;;;;9.43;4.12;;;;;;;3.38;68.46;100769.45;147727;1148;104513;-75
2021/04/14 04:47:14;;;;;;;9.20;4.08;;;;;;;3.37;68.68;100770.42;147476;1147;104470;-71
2021/04/14 04:50:18;;;;;;;9.60;5.00;;;;;;;3.30;68.81;100774.37;147465;1148;104875;-75
2021/04/14 04:53:23;;;;;;;10.30;4.55;;;;;;;3.27;68.78;100766.63;147524;1147;104469;-72
2021/04/14 04:56:27;;;;;;;11.43;4.37;;;;;;;3.30;67.86;100772.56;147763;1147;104575;-71
2021/04/14 04:59:30;;;;;;;7.87;4.67;;;;;;;3.26;67.69;100767.59;147780;1148;104541;-71
2021/04/14 05:02:33;;;;;;;10.20;4.55;;;;;;;3.25;68.08;100771.15;147801;1147;104472;-71
2021/04/14 05:05:38;;;;;;;9.75;5.22;;;;;;;3.17;68.87;100774.25;147464;1146;104549;-72
2021/04/14 05:08:41;;;;;;;8.13;4.37;;;;;;;3.14;69.10;100777.93;147785;1147;104529;-71
2021/04/14 05:11:46;;;;;;;8.87;3.50;;;;;;;3.21;70.34;100775.76;147503;1147;104538;-71
2021/04/14 05:14:49;;;;;;;8.08;3.58;;;;;;;3.26;69.63;100775.50;147463;1147;104471;-70
2021/04/14 05:17:52;;;;;;;9.08;3.20;;;;;;;3.32;71.33;100780.39;147164;1148;104457;-72
2021/04/14 05:20:56;;;;;;;9.13;2.77;;;;;;;3.38;70.48;100777.38;147401;1147;104621;-72
2021/04/14 05:23:59;;;;;;;8.40;3.52;;;;;;;3.37;69.34;100767.78;147555;1147;104908;-76
2021/04/14 05:27:02;;;;;;;6.05;2.70;;;;;;;3.30;68.97;100769.09;147735;1147;104543;-72
2021/04/14 05:30:07;;;;;;;6.95;2.65;;;;;;;3.27;68.40;100774.54;147743;1147;104607;-75
2021/04/14 05:33:12;;;;;;;8.08;3.00;;;;;;;3.26;68.22;100764.95;147463;1147;104480;-73
2021/04/14 05:36:15;;;;;;;10.60;3.00;;;;;;;3.33;68.28;100768.91;147659;1147;104458;-74
2021/04/14 05:39:19;;;;;;;6.72;2.98;;;;;;;3.39;69.94;100767.66;147809;1146;104937;-72
2021/04/14 05:42:22;;;;;;;7.72;3.27;;;;;;;3.43;70.77;100774.47;147734;1146;104646;-71
2021/04/14 05:45:29;;;;;;;8.98;3.33;;;;;;;3.52;68.50;100761.56;147780;1147;104579;-70
2021/04/14 05:48:32;;;;;;;7.80;3.13;;;;;;;3.63;69.51;100767.95;147620;1147;104659;-71
2021/04/14 05:51:35;;;;;;;7.90;3.02;;;;;;;3.59;70.52;100761.17;147568;1147;104494;-73
2021/04/14 05:54:39;;;;;;;7.40;3.72;;;;;;;3.58;69.13;100767.38;147548;1147;105039;-71
2021/04/14 05:57:42;;;;;;;6.47;2.87;;;;;;;3.62;69.60;100769.75;147740;1147;104536;-70
2021/04/14 06:00:45;;;;;;;7.20;2.27;;;;;;;3.52;70.28;100764.20;147645;1146;104524;-72
2021/04/14 06:03:50;;;;;;;10.07;2.70;;;;;;;3.66;69.45;100768.61;147669;1147;104456;-70
2021/04/14 06:06:53;;;;;;;7.45;2.70;;;;;;;3.84;69.16;100771.03;147750;1147;104476;-71
2021/04/14 06:09:56;;;;;;;9.58;3.50;;;;;;;3.90;68.26;100771.48;147717;1147;104537;-70
2021/04/14 06:12:59;;;;;;;6.85;3.15;;;;;;;3.95;68.64;100770.36;147753;1147;104469;-71
2021/04/14 06:16:03;;;;;;;8.60;3.05;;;;;;;4.05;68.55;100768.81;147639;1147;104484;-70
2021/04/14 06:19:06;;;;;;;8.65;2.95;;;;;;;4.13;68.39;100769.16;147877;1147;104607;-71
2021/04/14 06:22:10;;;;;;;6.72;3.05;;;;;;;4.11;67.96;100773.70;147775;1146;104892;-71
2021/04/14 06:25:17;;;;;;;6.17;2.62;;;;;;;4.07;67.83;100769.56;147649;1147;106048;-71
2021/04/14 06:28:20;;;;;;;7.33;3.20;;;;;;;3.95;69.29;100781.77;147613;1148;104554;-73
2021/04/14 06:31:25;;;;;;;37.30;21.25;;;;;;;3.74;70.18;100773.41;147638;1147;104549;-75
2021/04/14 06:34:30;;;;;;;24.43;15.28;;;;;;;3.62;68.14;100768.87;147717;1147;104574;-73
2021/04/14 06:37:33;;;;;;;10.03;3.80;;;;;;;3.66;69.75;100776.52;147787;1147;104466;-71
2021/04/14 06:41:04;;;;;;;23.07;15.08;;;;;;;3.73;69.03;100774.33;147796;1147;104540;-72
2021/04/14 06:44:17;;;;;;;49.37;33.50;;;;;;;3.81;68.84;100777.36;147627;1147;104454;-74
2021/04/14 06:47:30;;;;;;;35.45;21.82;;;;;;;3.86;68.65;100771.78;147664;1147;104533;-72
2021/04/14 06:50:40;;;;;;;34.70;24.80;;;;;;;3.96;69.12;100772.04;147727;1145;104919;-71
2021/04/14 06:53:56;;;;;;;43.70;33.92;;;;;;;4.07;68.64;100772.20;147652;1147;104489;-72
2021/04/14 06:57:04;;;;;;;17.17;12.93;;;;;;;3.98;68.76;100770.14;147530;1147;104535;-71
2021/04/14 07:00:15;;;;;;;21.50;13.40;;;;;;;3.88;69.21;100770.73;147383;1148;104509;-71
2021/04/14 07:03:23;;;;;;;162.85;88.03;;;;;;;3.76;68.83;100763.59;147385;1147;104483;-71
2021/04/14 07:06:30;;;;;;;63.30;36.45;;;;;;;3.85;69.85;100759.51;147384;1146;104475;-70
2021/04/14 07:09:35;;;;;;;28.80;15.35;;;;;;;4.01;68.82;100764.68;147677;1147;104528;-70
2021/04/14 07:12:39;;;;;;;21.40;11.67;;;;;;;4.08;69.73;100765.96;147691;1147;104994;-74
2021/04/14 07:15:42;;;;;;;20.17;11.10;;;;;;;4.12;68.67;100772.77;147764;1147;104600;-74
2021/04/14 07:18:56;;;;;;;9.33;4.17;;;;;;;4.24;68.43;100769.31;147749;1147;104864;-70
2021/04/14 07:22:08;;;;;;;45.88;34.13;;;;;;;4.14;69.42;100770.88;147881;1147;104473;-73
2021/04/14 07:25:17;;;;;;;25.30;19.27;;;;;;;4.12;68.46;100770.13;147738;1147;104963;-71
2021/04/14 07:28:40;;;;;;;11.30;5.87;;;;;;;4.06;68.39;100767.86;147650;1147;104805;-70
2021/04/14 07:31:51;;;;;;;11.70;6.63;;;;;;;4.09;67.87;100765.03;147744;1148;104620;-71
2021/04/14 07:35:14;;;;;;;11.70;4.50;;;;;;;4.17;68.33;100765.38;147829;1147;104973;-71
2021/04/14 07:38:25;;;;;;;12.33;5.03;;;;;;;4.27;68.47;100771.77;147755;1147;104469;-71
2021/04/14 07:41:42;;;;;;;6.42;2.15;;;;;;;4.34;68.57;100766.92;147303;1147;104516;-71
2021/04/14 07:44:56;;;;;;;9.43;2.80;;;;;;;4.36;68.30;100769.47;147690;1147;104500;-71
2021/04/14 07:48:04;;;;;;;7.42;2.87;;;;;;;4.40;69.04;100766.52;147759;1147;104613;-71
2021/04/14 07:51:12;;;;;;;10.47;4.53;;;;;;;4.45;68.69;100761.78;147737;1148;104460;-71
2021/04/14 07:54:18;;;;;;;9.00;3.08;;;;;;;4.57;69.39;100757.48;147740;1147;104566;-73
2021/04/14 07:57:30;;;;;;;9.83;3.52;;;;;;;4.56;68.09;100754.93;147728;1148;104448;-71
2021/04/14 08:00:38;;;;;;;6.60;2.50;;;;;;;4.63;68.46;100756.22;147918;1147;104442;-74
2021/04/14 08:03:42;;;;;;;7.53;3.00;;;;;;;4.80;68.88;100748.00;147939;1147;104950;-71
2021/04/14 08:06:46;;;;;;;6.72;2.90;;;;;;;4.85;68.39;100750.32;147828;1148;104622;-70
2021/04/14 08:09:52;;;;;;;17.23;8.95;;;;;;;4.88;68.13;100756.25;147724;1147;104535;-74
2021/04/14 08:13:00;;;;;;;19.77;12.18;;;;;;;4.91;68.36;100755.22;147542;1147;104496;-71
2021/04/14 08:16:13;;;;;;;12.13;6.30;;;;;;;4.97;68.71;100754.80;147828;1147;104470;-70
2021/04/14 08:19:24;;;;;;;12.43;5.67;;;;;;;4.82;68.92;100753.20;147487;1146;104594;-71
2021/04/14 08:22:29;;;;;;;19.10;13.27;;;;;;;4.59;68.88;100750.29;147819;1146;104547;-72
2021/04/14 08:25:33;;;;;;;8.33;4.55;;;;;;;4.35;69.63;100736.93;148036;1145;104822;-71
2021/04/14 08:28:41;;;;;;;15.78;11.00;;;;;;;4.22;68.74;100747.44;147413;1146;104452;-72
2021/04/14 08:31:46;;;;;;;9.85;5.50;;;;;;;4.19;69.31;100752.07;147643;1147;104591;-72
2021/04/14 08:34:58;;;;;;;8.88;5.37;;;;;;;4.32;69.14;100756.45;147794;1147;104560;-72
2021/04/14 08:38:10;;;;;;;10.82;4.72;;;;;;;4.39;69.04;100759.55;147890;1146;104541;-70
2021/04/14 08:41:25;;;;;;;8.83;4.83;;;;;;;4.50;69.27;100748.25;147650;1148;104539;-70
2021/04/14 08:44:36;;;;;;;11.75;5.40;;;;;;;4.77;69.14;100734.14;147543;1146;104649;-71
2021/04/14 08:47:46;;;;;;;10.70;5.28;;;;;;;4.90;68.87;100735.00;147515;1147;104444;-72
2021/04/14 08:50:52;;;;;;;13.58;6.62;;;;;;;5.07;68.28;100734.69;147412;1147;104598;-70
2021/04/14 08:53:58;;;;;;;47.00;27.70;;;;;;;5.15;68.54;100733.32;147284;1146;104822;-71
2021/04/14 08:57:02;;;;;;;18.67;12.00;;;;;;;5.21;68.34;100731.08;147721;1147;104953;-72
2021/04/14 09:00:09;;;;;;;16.50;9.65;;;;;;;5.19;68.56;100732.16;147770;1147;104525;-71
2021/04/14 09:03:15;;;;;;;14.05;8.78;;;;;;;5.15;68.52;100722.73;147762;1146;104852;-75
2021/04/14 09:06:21;;;;;;;9.93;4.87;;;;;;;5.22;68.59;100729.30;147794;1147;104620;-71
2021/04/14 09:09:28;;;;;;;11.60;5.57;;;;;;;5.31;67.96;100718.92;147733;1147;106060;-72
2021/04/14 09:12:39;;;;;;;9.80;5.22;;;;;;;5.36;68.70;100729.17;147660;1147;104882;-71
2021/04/14 09:15:55;;;;;;;6.70;3.45;;;;;;;5.49;68.20;100722.06;147756;1147;104452;-74
2021/04/14 09:19:09;;;;;;;10.00;4.58;;;;;;;5.49;67.93;100716.77;147533;1147;104552;-71
2021/04/14 09:22:23;;;;;;;7.57;4.13;;;;;;;5.47;68.34;100716.03;147538;1147;104658;-71
2021/04/14 09:25:33;;;;;;;7.73;3.90;;;;;;;5.60;67.81;100715.14;147535;1147;104514;-71
2021/04/14 09:28:44;;;;;;;6.35;3.37;;;;;;;5.70;68.07;100714.39;147586;1147;104469;-71
2021/04/14 09:31:51;;;;;;;10.43;4.58;;;;;;;5.84;68.26;100716.03;147402;1147;104608;-70
2021/04/14 09:34:54;;;;;;;10.45;4.60;;;;;;;5.69;67.43;100710.03;147607;1146;104495;-73
2021/04/14 09:38:08;;;;;;;8.30;3.47;;;;;;;5.64;67.97;100700.73;147412;1148;104546;-71
2021/04/14 09:41:29;;;;;;;8.50;3.27;;;;;;;5.56;67.54;100703.09;147597;1146;104560;-76
2021/04/14 09:44:37;;;;;;;5.55;2.62;;;;;;;5.57;67.35;100704.80;147756;1148;104541;-72
2021/04/14 09:47:41;;;;;;;13.93;4.72;;;;;;;5.53;67.43;100698.03;147772;1147;104474;-71
2021/04/14 09:50:46;;;;;;;8.35;3.60;;;;;;;5.47;67.15;100708.09;147679;1147;104474;-71
2021/04/14 09:53:53;;;;;;;16.75;7.72;;;;;;;5.36;67.76;100710.65;147325;1147;104550;-71
2021/04/14 09:56:59;;;;;;;9.95;4.35;;;;;;;5.31;68.55;100702.17;147667;1147;104529;-71
2021/04/14 10:00:05;;;;;;;9.78;4.08;;;;;;;5.07;68.67;100710.05;147757;1146;104546;-71
2021/04/14 10:03:19;;;;;;;12.43;8.40;;;;;;;4.92;68.36;100711.94;147691;1147;104459;-72
2021/04/14 10:06:24;;;;;;;8.93;5.37;;;;;;;4.99;68.35;100707.09;147554;1145;104470;-72
2021/04/14 10:09:32;;;;;;;7.10;3.30;;;;;;;5.07;68.10;100699.47;147340;1147;104527;-71
2021/04/14 10:12:35;;;;;;;8.75;5.12;;;;;;;5.17;68.03;100707.60;147687;1147;104486;-75
2021/04/14 10:15:42;;;;;;;7.10;3.27;;;;;;;5.35;68.01;100710.75;147797;1147;104565;-76
2021/04/14 10:18:45;;;;;;;7.17;3.45;;;;;;;5.39;68.07;100705.15;147688;1147;104464;-71
2021/04/14 10:21:48;;;;;;;21.47;13.93;;;;;;;5.42;67.81;100702.27;147676;1148;104524;-72
2021/04/14 10:25:00;;;;;;;13.30;6.47;;;;;;;5.51;67.52;100701.63;147586;1147;104694;-73
2021/04/14 10:28:07;;;;;;;22.25;16.50;;;;;;;5.69;68.20;100706.55;147786;1147;104464;-71
2021/04/14 10:31:13;;;;;;;8.75;5.80;;;;;;;5.70;67.77;100703.80;147720;1146;104466;-73
2021/04/14 10:34:28;;;;;;;9.20;5.28;;;;;;;5.68;67.63;100703.06;147659;1147;104460;-77
2021/04/14 10:37:32;;;;;;;11.00;4.83;;;;;;;5.52;67.15;100699.81;147727;1147;104484;-73
2021/04/14 10:40:38;;;;;;;8.53;5.03;;;;;;;5.21;68.34;100693.20;147730;1147;104593;-71
2021/04/14 10:43:41;;;;;;;10.13;4.72;;;;;;;5.04;68.33;100699.66;147677;1147;104585;-71
2021/04/14 10:46:46;;;;;;;9.03;5.15;;;;;;;4.88;67.85;100689.31;147359;1147;104549;-71
2021/04/14 10:49:51;;;;;;;8.38;4.58;;;;;;;4.83;68.62;100689.64;147712;1147;104581;-73
2021/04/14 10:53:00;;;;;;;7.80;4.90;;;;;;;4.67;68.98;100700.39;147604;1147;104546;-71
2021/04/14 10:56:04;;;;;;;7.03;3.90;;;;;;;4.61;68.08;100687.59;147772;1147;104626;-71
2021/04/14 10:59:11;;;;;;;7.35;4.37;;;;;;;4.69;68.72;100693.20;147733;1147;104497;-72
2021/04/14 11:02:22;;;;;;;10.68;6.10;;;;;;;4.84;68.58;100693.12;147713;1147;104486;-72
2021/04/14 11:05:26;;;;;;;7.10;4.70;;;;;;;4.86;68.75;100688.58;147741;1147;104538;-68
2021/04/14 11:08:30;;;;;;;7.47;4.37;;;;;;;4.68;68.86;100696.81;147409;1148;104553;-71
2021/04/14 11:11:35;;;;;;;6.92;3.83;;;;;;;4.62;68.94;100699.88;147724;1147;104620;-71
2021/04/14 11:14:41;;;;;;;8.28;4.70;;;;;;;4.70;69.96;100697.55;147721;1147;104503;-71
2021/04/14 11:17:45;;;;;;;7.57;3.97;;;;;;;4.70;69.11;100697.55;147533;1147;104578;-71
2021/04/14 11:20:54;;;;;;;7.80;4.53;;;;;;;4.78;70.17;100690.91;147736;1146;104905;-70
2021/04/14 11:24:07;;;;;;;7.42;4.83;;;;;;;4.88;69.41;100686.67;147508;1147;104540;-71
2021/04/14 11:27:16;;;;;;;8.63;4.70;;;;;;;4.87;68.96;100687.64;147676;1146;104711;-71
2021/04/14 11:30:22;;;;;;;7.50;4.37;;;;;;;4.95;69.62;100687.11;147813;1147;104862;-70
2021/04/14 11:33:37;;;;;;;6.05;3.80;;;;;;;5.05;69.24;100682.86;147603;1146;104522;-72
2021/04/14 11:36:40;;;;;;;6.87;3.67;;;;;;;4.96;69.07;100686.97;147474;1146;104549;-74
2021/04/14 11:39:52;;;;;;;7.47;3.58;;;;;;;5.02;68.97;100677.77;147766;1146;104546;-71
2021/04/14 11:42:58;;;;;;;7.58;3.37;;;;;;;5.00;68.64;100679.67;147763;1147;104546;-70
2021/04/14 11:46:05;;;;;;;8.47;3.77;;;;;;;5.14;68.24;100681.36;147594;1147;104560;-71
2021/04/14 11:49:11;;;;;;;8.38;4.00;;;;;;;5.05;69.24;100674.92;147670;1147;105039;-71
2021/04/14 11:52:21;;;;;;;11.03;4.62;;;;;;;5.21;68.97;100675.52;147770;1147;104535;-71
2021/04/14 11:55:35;;;;;;;10.87;5.43;;;;;;;5.35;68.94;100674.58;147765;1147;104477;-73
2021/04/14 11:58:45;;;;;;;7.87;4.40;;;;;;;5.60;68.89;100672.78;147660;1147;104617;-72
2021/04/14 12:01:54;;;;;;;8.28;4.33;;;;;;;5.67;67.91;100669.59;147808;1147;104541;-71
2021/04/14 12:04:59;;;;;;;6.78;3.90;;;;;;;5.53;67.83;100668.92;147129;1147;104544;-73
2021/04/14 12:08:03;;;;;;;7.50;4.00;;;;;;;5.52;68.24;100681.28;147682;1147;104544;-74
2021/04/14 12:11:17;;;;;;;9.45;4.55;;;;;;;5.40;68.17;100672.42;147630;1147;104551;-71
2021/04/14 12:14:20;;;;;;;7.95;4.12;;;;;;;5.35;68.16;100666.63;147590;1147;104642;-71
2021/04/14 12:17:23;;;;;;;10.58;4.47;;;;;;;5.39;68.75;100665.45;147680;1147;104556;-73
2021/04/14 12:20:27;;;;;;;9.13;4.00;;;;;;;5.34;68.71;100664.09;147710;1146;104464;-73
2021/04/14 12:23:30;;;;;;;9.08;4.53;;;;;;;5.19;69.18;100652.78;147726;1147;104539;-71
2021/04/14 12:26:33;;;;;;;8.50;4.43;;;;;;;5.18;69.79;100662.53;147640;1147;104486;-71
2021/04/14 12:29:36;;;;;;;7.53;4.10;;;;;;;5.02;69.40;100662.77;147678;1147;104663;-70
2021/04/14 12:32:40;;;;;;;9.90;4.67;;;;;;;5.11;69.74;100661.27;147740;1147;104482;-74
2021/04/14 12:35:43;;;;;;;8.05;4.33;;;;;;;5.03;69.70;100658.31;147632;1146;104473;-72
2021/04/14 12:38:46;;;;;;;8.58;4.42;;;;;;;5.04;70.65;100660.00;147593;1148;104525;-72
2021/04/14 12:41:49;;;;;;;10.38;5.25;;;;;;;5.05;70.04;100657.25;147511;1147;104553;-71
2021/04/14 12:44:53;;;;;;;10.18;5.20;;;;;;;5.10;70.18;100651.66;147170;1146;104580;-72
2021/04/14 12:47:57;;;;;;;8.68;4.53;;;;;;;5.21;69.96;100658.81;147701;1146;104487;-71
2021/04/14 12:51:13;;;;;;;7.35;4.00;;;;;;;5.30;69.83;100655.52;147443;1147;104456;-73
2021/04/14 12:54:28;;;;;;;7.58;4.10;;;;;;;5.31;70.31;100651.91;147737;1147;104553;-71
2021/04/14 12:57:42;;;;;;;8.33;4.17;;;;;;;5.28;69.77;100650.33;147612;1146;104554;-74
2021/04/14 13:00:49;;;;;;;8.83;4.47;;;;;;;5.19;70.25;100645.69;147625;1147;104525;-75
2021/04/14 13:04:01;;;;;;;8.63;4.63;;;;;;;5.27;70.04;100648.66;147619;1147;104453;-71
2021/04/14 13:07:09;;;;;;;6.85;3.90;;;;;;;5.26;69.68;100654.89;147776;1146;104471;-71
2021/04/14 13:10:14;;;;;;;8.93;3.90;;;;;;;5.03;70.39;100653.87;147709;1148;104535;-72
2021/04/14 13:13:17;;;;;;;9.58;4.37;;;;;;;4.96;70.33;100642.02;147702;1146;104538;-72
2021/04/14 13:16:28;;;;;;;8.43;4.10;;;;;;;5.17;70.15;100646.76;147638;1147;104633;-71
2021/04/14 13:19:32;;;;;;;9.68;4.40;;;;;;;5.12;70.09;100641.81;147571;1147;104546;-67
2021/04/14 13:22:38;;;;;;;11.20;4.97;;;;;;;5.13;69.84;100642.64;147370;1148;104490;-74
2021/04/14 13:25:52;;;;;;;9.47;4.87;;;;;;;5.12;70.10;100647.09;147638;1147;104457;-73
2021/04/14 13:29:03;;;;;;;9.55;4.75;;;;;;;5.18;69.92;100640.53;147703;1148;104502;-71
2021/04/14 13:32:13;;;;;;;9.03;5.13;;;;;;;5.24;69.48;100632.16;147704;1147;104960;-75
2021/04/14 13:35:21;;;;;;;9.80;4.80;;;;;;;5.34;69.70;100632.34;147688;1147;104516;-73
2021/04/14 13:38:26;;;;;;;9.13;5.20;;;;;;;5.47;69.83;100638.44;147289;1147;104868;-73
2021/04/14 13:41:35;;;;;;;11.73;5.25;;;;;;;5.55;69.78;100635.23;147681;1147;104601;-71
2021/04/14 13:44:49;;;;;;;12.82;5.83;;;;;;;5.42;69.99;100640.56;147610;1147;104460;-73
2021/04/14 13:48:00;;;;;;;10.73;5.43;;;;;;;5.41;69.76;100637.08;147671;1147;104617;-71
2021/04/14 13:51:11;;;;;;;9.38;5.47;;;;;;;5.48;70.46;100629.52;147392;1146;104451;-72
2021/04/14 13:54:19;;;;;;;8.03;5.50;;;;;;;5.60;69.80;100625.14;147578;1147;104539;-71
2021/04/14 13:57:26;;;;;;;9.90;5.47;;;;;;;5.48;69.42;100621.59;147371;1146;104469;-72
2021/04/14 14:00:35;;;;;;;9.95;5.62;;;;;;;5.37;69.91;100622.38;147271;1147;104537;-73
2021/04/14 14:03:38;;;;;;;9.63;5.00;;;;;;;5.39;70.21;100617.82;147214;1146;104543;-73
2021/04/14 14:06:49;;;;;;;8.23;4.80;;;;;;;5.28;70.23;100623.03;147717;1148;104537;-71
2021/04/14 14:09:59;;;;;;;8.10;4.93;;;;;;;5.26;70.67;100617.02;147676;1146;104551;-72
2021/04/14 14:13:05;;;;;;;7.67;4.33;;;;;;;5.14;70.84;100616.09;147655;1147;104543;-71